Terminal Aerodrome Forecast
Issued by NWS Wilmington, OH

Current Version | Previous Version | Text Only | Print | Product List | Glossary Off
Versions: 1 2 3 4 5 6 7 8 9 10 11 12 13 14 15 16 17 18 19 20 21 22 23 24 25 26

000
FTUS41 KILN 032200 AAB
TAFILN
TAF AMD
KILN 032203Z 0322/0418 23010KT 1/4SM -RA FG OVC003
     FM040000 23012KT 1SM -RA BR OVC003
     FM040300 28012KT 2SM -RA BR OVC004
     FM041300 32012KT 1 1/2SM -SN BR OVC006=

USA.gov is the U.S. government's official web portal to all federal, state and local government web resources and services.